Time;durP1;ratioP1;P1;durP2;ratioP2;P2;SDS_P1;SDS_P2;PMS_P1;PMS_P2;Temp;Humidity;BMP_temperature;BMP_pressure;BME280_temperature;BME280_humidity;BME280_pressure;Samples;Min_cycle;Max_cycle;Signal;HPM_P1;HPM_P2
2021/08/10 00:02:08;;;;;;;5.80;2.72;;;17.80;99.90;;;;;;5094780;28;20020;-63
2021/08/10 00:04:34;;;;;;;5.30;2.10;;;17.90;99.90;;;;;;5076416;28;20093;-63
2021/08/10 00:07:00;;;;;;;3.30;2.15;;;17.80;99.90;;;;;;5076222;28;20042;-63
2021/08/10 00:09:25;;;;;;;4.72;2.00;;;17.80;99.90;;;;;;5093651;28;20032;-62
2021/08/10 00:11:51;;;;;;;7.65;2.55;;;17.80;99.90;;;;;;5094743;28;20055;-63
2021/08/10 00:14:17;;;;;;;4.10;2.38;;;17.70;99.90;;;;;;5076237;28;20403;-62
2021/08/10 00:16:42;;;;;;;6.55;2.25;;;17.70;99.90;;;;;;5094326;28;20385;-64
2021/08/10 00:19:08;;;;;;;5.00;2.28;;;17.70;99.90;;;;;;5094200;28;20028;-63
2021/08/10 00:21:36;;;;;;;4.10;1.70;;;17.60;99.90;;;;;;5094322;28;20020;-63
2021/08/10 00:24:01;;;;;;;6.10;2.22;;;17.60;99.90;;;;;;5094949;28;20035;-63
2021/08/10 00:26:27;;;;;;;7.47;2.45;;;17.60;99.90;;;;;;5094202;28;20021;-63
2021/08/10 00:28:52;;;;;;;3.42;1.60;;;17.60;99.90;;;;;;5094304;28;20024;-63
2021/08/10 00:31:18;;;;;;;4.60;2.33;;;17.50;99.90;;;;;;5094031;28;20031;-62
2021/08/10 00:33:44;;;;;;;5.15;2.33;;;17.50;99.90;;;;;;5094039;28;20040;-62
2021/08/10 00:36:12;;;;;;;10.20;3.08;;;17.50;99.90;;;;;;5094202;28;20055;-64
2021/08/10 00:38:38;;;;;;;5.05;1.73;;;17.40;99.90;;;;;;5094002;28;20439;-63
2021/08/10 00:41:04;;;;;;;5.63;1.80;;;17.40;99.90;;;;;;5094183;28;20359;-63
2021/08/10 00:43:41;;;;;;;3.95;2.13;;;17.40;99.90;;;;;;5095065;28;20111;-63
2021/08/10 00:46:10;;;;;;;5.47;2.00;;;17.40;99.90;;;;;;5094127;28;20012;-63
2021/08/10 00:48:36;;;;;;;4.32;2.03;;;17.40;99.90;;;;;;5093737;28;20054;-64
2021/08/10 00:51:05;;;;;;;5.60;2.53;;;17.30;99.90;;;;;;5093715;28;20020;-62
2021/08/10 00:53:32;;;;;;;3.97;1.70;;;17.30;99.90;;;;;;5093537;28;20024;-64
2021/08/10 00:55:57;;;;;;;6.32;2.08;;;17.30;99.90;;;;;;5093525;28;20028;-64
2021/08/10 00:58:23;;;;;;;5.15;1.98;;;17.20;99.90;;;;;;5093745;28;20020;-64
2021/08/10 01:00:48;;;;;;;4.47;1.90;;;17.20;99.90;;;;;;5093321;28;20032;-64
2021/08/10 01:03:14;;;;;;;3.67;2.10;;;17.10;99.90;;;;;;5093375;28;20028;-64
2021/08/10 01:05:48;;;;;;;5.22;1.90;;;17.10;99.90;;;;;;5093458;28;20354;-63
2021/08/10 01:08:35;;;;;;;4.07;2.00;;;17.10;99.90;;;;;;5075203;28;20109;-64
2021/08/10 01:11:19;;;;;;;;;;;17.00;99.90;;;;;;5093702;28;20368;-62
2021/08/10 01:13:54;;;;;;;3.80;1.70;;;17.00;99.90;;;;;;5075026;28;20285;-63
2021/08/10 01:16:30;;;;;;;6.00;1.95;;;17.00;99.90;;;;;;5093462;28;20052;-63
2021/08/10 01:19:08;;;;;;;5.68;2.08;;;17.00;99.90;;;;;;5093442;28;20023;-63
2021/08/10 01:21:41;;;;;;;3.92;2.15;;;17.00;99.90;;;;;;5092872;28;20053;-63
2021/08/10 01:24:21;;;;;;;3.53;2.30;;;17.00;99.90;;;;;;5093133;28;20012;-63
2021/08/10 01:26:53;;;;;;;8.35;2.63;;;17.00;99.90;;;;;;5093130;28;20020;-64
2021/08/10 01:29:32;;;;;;;5.65;1.90;;;16.90;99.90;;;;;;5093316;28;20027;-63
2021/08/10 01:31:58;;;;;;;3.67;2.08;;;16.90;99.90;;;;;;5093646;28;20020;-63
2021/08/10 01:34:29;;;;;;;4.35;2.03;;;16.90;99.90;;;;;;5093045;28;20495;-63
2021/08/10 01:36:59;;;;;;;6.07;2.35;;;16.90;99.90;;;;;;5093088;28;20047;-64
2021/08/10 01:39:27;;;;;;;4.22;1.88;;;16.90;99.90;;;;;;5074746;28;20024;-63
2021/08/10 01:41:54;;;;;;;5.88;2.33;;;16.90;99.90;;;;;;5093150;28;20073;-63
2021/08/10 01:44:25;;;;;;;5.15;2.10;;;16.90;99.90;;;;;;5092840;28;20054;-63
2021/08/10 01:46:52;;;;;;;2.92;1.80;;;16.90;99.90;;;;;;5074750;28;20507;-63
2021/08/10 01:49:19;;;;;;;4.10;1.80;;;16.90;99.90;;;;;;5074715;28;20020;-63
2021/08/10 01:51:46;;;;;;;3.00;1.73;;;16.90;99.90;;;;;;5092688;28;20031;-62
2021/08/10 01:54:13;;;;;;;5.40;1.90;;;16.80;99.90;;;;;;5093048;28;20043;-62
2021/08/10 01:56:40;;;;;;;4.55;1.88;;;16.80;99.90;;;;;;5092675;28;20024;-62
2021/08/10 01:59:07;;;;;;;5.85;2.20;;;16.80;99.90;;;;;;5092552;28;20095;-60
2021/08/10 02:01:34;;;;;;;3.78;2.20;;;16.80;99.90;;;;;;5092789;28;20055;-60
2021/08/10 02:04:02;;;;;;;4.90;1.80;;;16.70;99.90;;;;;;5092657;28;20031;-62
2021/08/10 02:06:29;;;;;;;4.93;1.90;;;16.70;99.90;;;;;;5092728;28;20024;-62
2021/08/10 02:08:56;;;;;;;4.32;2.10;;;16.70;99.90;;;;;;5093138;28;20020;-61
2021/08/10 02:11:24;;;;;;;4.18;2.00;;;16.70;99.90;;;;;;5092830;28;20039;-62
2021/08/10 02:13:51;;;;;;;5.43;2.08;;;16.70;99.90;;;;;;5092840;28;20055;-62
2021/08/10 02:16:18;;;;;;;3.78;2.20;;;16.70;99.90;;;;;;5093197;28;20049;-62
2021/08/10 02:18:46;;;;;;;5.63;2.58;;;16.60;99.90;;;;;;5092615;28;20024;-62
2021/08/10 02:21:21;;;;;;;5.95;2.40;;;16.60;99.90;;;;;;5092842;28;20028;-62
2021/08/10 02:23:47;;;;;;;7.50;2.55;;;16.60;99.90;;;;;;5092653;28;20494;-62
2021/08/10 02:26:14;;;;;;;4.72;2.08;;;16.60;99.90;;;;;;5092754;28;20202;-62
2021/08/10 02:28:41;;;;;;;4.57;2.38;;;16.60;99.90;;;;;;5074903;28;20035;-62
2021/08/10 02:31:08;;;;;;;4.22;2.13;;;16.50;99.90;;;;;;5093211;28;20031;-61
2021/08/10 02:33:34;;;;;;;4.10;2.53;;;16.50;99.90;;;;;;5095279;28;20477;-62
2021/08/10 02:36:02;;;;;;;5.03;2.03;;;16.50;99.90;;;;;;5096489;28;20043;-61
2021/08/10 02:38:29;;;;;;;6.75;2.30;;;16.50;99.90;;;;;;5096610;28;20024;-61
2021/08/10 02:40:57;;;;;;;11.55;2.50;;;16.50;99.90;;;;;;5096207;28;20020;-62
2021/08/10 02:43:26;;;;;;;3.65;1.80;;;16.50;99.90;;;;;;5096150;28;20070;-62
2021/08/10 02:45:52;;;;;;;4.03;2.42;;;16.50;99.90;;;;;;5096211;28;20081;-63
2021/08/10 02:48:17;;;;;;;4.80;2.20;;;16.40;99.90;;;;;;5096211;28;20020;-63
2021/08/10 02:50:43;;;;;;;6.70;2.25;;;16.40;99.90;;;;;;5096166;28;20446;-62
2021/08/10 02:53:08;;;;;;;4.93;2.20;;;16.40;99.90;;;;;;5077710;28;20480;-62
2021/08/10 02:55:36;;;;;;;5.65;2.28;;;16.40;99.90;;;;;;5077876;28;20066;-62
2021/08/10 02:58:05;;;;;;;6.15;2.30;;;16.40;99.90;;;;;;5095877;28;20062;-62
2021/08/10 03:00:37;;;;;;;4.15;2.40;;;16.40;99.90;;;;;;5096299;28;20085;-62
2021/08/10 03:03:12;;;;;;;6.30;2.38;;;16.40;99.90;;;;;;5095941;28;20024;-61
2021/08/10 03:05:42;;;;;;;4.97;2.67;;;16.30;99.90;;;;;;5095949;28;20105;-62
2021/08/10 03:08:12;;;;;;;6.35;2.70;;;16.30;99.90;;;;;;5096120;28;20056;-63
2021/08/10 03:10:38;;;;;;;7.32;2.72;;;16.30;99.90;;;;;;5096252;28;20479;-62
2021/08/10 03:13:07;;;;;;;6.82;2.60;;;16.30;99.90;;;;;;5095652;28;20050;-63
2021/08/10 03:15:35;;;;;;;7.25;2.60;;;16.30;99.90;;;;;;5095698;28;20445;-62
2021/08/10 03:18:06;;;;;;;8.18;3.17;;;16.30;99.90;;;;;;5095698;28;20046;-63
2021/08/10 03:20:33;;;;;;;6.55;2.92;;;16.30;99.90;;;;;;5095637;28;20456;-63
2021/08/10 03:23:00;;;;;;;5.78;2.70;;;16.30;99.90;;;;;;5095652;28;20083;-63
2021/08/10 03:25:26;;;;;;;5.93;2.95;;;16.30;99.90;;;;;;5095760;28;20469;-63
2021/08/10 03:27:53;;;;;;;;;;;16.30;99.90;;;;;;5095948;28;20387;-63
2021/08/10 03:30:19;;;;;;;3.83;2.42;;;16.20;99.90;;;;;;5095729;28;19904;-62
2021/08/10 03:32:46;;;;;;;4.55;2.17;;;16.20;99.90;;;;;;5095400;28;20122;-62
2021/08/10 03:35:12;;;;;;;4.95;2.60;;;16.10;99.90;;;;;;5095576;28;20039;-63
2021/08/10 03:37:38;;;;;;;5.88;2.40;;;16.10;99.90;;;;;;5095220;28;20030;-63
2021/08/10 03:40:05;;;;;;;5.78;2.75;;;16.20;99.90;;;;;;5094995;28;20076;-63
2021/08/10 03:42:33;;;;;;;6.18;2.08;;;16.20;99.90;;;;;;5094922;28;20020;-63
2021/08/10 03:44:59;;;;;;;4.65;2.55;;;16.20;99.90;;;;;;5094960;28;20016;-63
2021/08/10 03:47:25;;;;;;;12.15;2.50;;;16.20;99.90;;;;;;5076925;28;20058;-62
2021/08/10 03:49:53;;;;;;;10.27;2.38;;;16.20;99.90;;;;;;5094900;28;20043;-62
2021/08/10 03:52:18;;;;;;;4.80;2.40;;;16.20;99.90;;;;;;5094689;28;20028;-63
2021/08/10 03:54:44;;;;;;;5.90;2.35;;;16.20;99.90;;;;;;5094947;28;20024;-63
2021/08/10 03:57:15;;;;;;;4.15;2.15;;;16.20;99.90;;;;;;5095016;28;20043;-62
2021/08/10 03:59:42;;;;;;;3.70;2.00;;;16.20;99.90;;;;;;5095040;28;20366;-63
2021/08/10 04:02:09;;;;;;;4.70;2.50;;;16.20;99.90;;;;;;5094907;28;20050;-62
2021/08/10 04:04:36;;;;;;;6.35;2.13;;;16.10;99.90;;;;;;5094855;28;20089;-63
2021/08/10 04:07:02;;;;;;;;;;;16.10;99.90;;;;;;5095086;28;20016;-62
2021/08/10 04:09:28;;;;;;;5.03;2.20;;;16.10;99.90;;;;;;5094743;28;19905;-63
2021/08/10 04:11:53;;;;;;;5.30;2.67;;;16.10;99.90;;;;;;5095059;28;20027;-62
2021/08/10 04:14:21;;;;;;;3.55;2.20;;;16.10;99.90;;;;;;5094483;28;20301;-62
2021/08/10 04:17:00;;;;;;;4.70;2.10;;;16.10;99.90;;;;;;5094609;28;20039;-62
2021/08/10 04:19:30;;;;;;;4.63;2.20;;;16.10;99.90;;;;;;5094931;28;20043;-62
2021/08/10 04:21:56;;;;;;;5.85;2.17;;;16.20;99.90;;;;;;5094578;28;20040;-62
2021/08/10 04:24:22;;;;;;;4.88;2.17;;;16.20;99.90;;;;;;5094262;28;20480;-62
2021/08/10 04:26:47;;;;;;;6.85;2.65;;;16.20;99.90;;;;;;5076452;28;20028;-62
2021/08/10 04:29:13;;;;;;;4.40;2.47;;;16.30;99.90;;;;;;5094523;28;20086;-62
2021/08/10 04:31:40;;;;;;;5.00;2.20;;;16.30;99.90;;;;;;5094455;28;20324;-62
2021/08/10 04:34:06;;;;;;;3.92;1.98;;;16.30;99.90;;;;;;5094251;28;20032;-62
2021/08/10 04:36:31;;;;;;;4.25;1.90;;;16.30;99.90;;;;;;5094346;28;20094;-62
2021/08/10 04:38:57;;;;;;;3.40;2.15;;;16.30;99.90;;;;;;5094119;28;20472;-62
2021/08/10 04:41:23;;;;;;;5.22;2.40;;;16.30;99.90;;;;;;5094124;28;20032;-62
2021/08/10 04:43:49;;;;;;;7.47;2.55;;;16.40;99.90;;;;;;5094048;28;20395;-62
2021/08/10 04:46:14;;;;;;;7.20;2.80;;;16.40;99.90;;;;;;5094091;28;20020;-62
2021/08/10 04:48:40;;;;;;;4.20;2.70;;;16.40;99.90;;;;;;5094128;28;20039;-62
2021/08/10 04:51:05;;;;;;;5.30;2.30;;;16.40;99.90;;;;;;5094035;28;20056;-62
2021/08/10 04:53:31;;;;;;;7.77;3.90;;;16.40;99.90;;;;;;5093692;28;20036;-62
2021/08/10 04:55:57;;;;;;;3.85;2.42;;;16.40;99.90;;;;;;5093498;28;20262;-60
2021/08/10 04:58:22;;;;;;;4.85;2.30;;;16.50;99.90;;;;;;5094226;28;20024;-62
2021/08/10 05:00:48;;;;;;;8.50;2.58;;;16.50;99.90;;;;;;5093798;28;20039;-62
2021/08/10 05:03:14;;;;;;;4.93;1.92;;;16.60;99.90;;;;;;5093453;28;20039;-62
2021/08/10 05:05:40;;;;;;;8.05;2.55;;;16.60;99.90;;;;;;5093665;28;20020;-62
2021/08/10 05:08:06;;;;;;;5.67;2.50;;;16.70;99.90;;;;;;5094312;28;20028;-62
2021/08/10 05:10:32;;;;;;;3.42;2.28;;;16.80;99.90;;;;;;5076797;28;20336;-62
2021/08/10 05:12:58;;;;;;;4.00;2.47;;;16.80;99.90;;;;;;5094404;28;20028;-62
2021/08/10 05:15:24;;;;;;;6.90;2.40;;;17.00;99.90;;;;;;5093459;28;20540;-62
2021/08/10 05:17:49;;;;;;;6.57;2.92;;;17.00;99.90;;;;;;5075171;28;20105;-62
2021/08/10 05:20:15;;;;;;;5.40;2.33;;;17.00;99.90;;;;;;5093291;28;20028;-62
2021/08/10 05:22:41;;;;;;;3.05;2.20;;;16.90;99.90;;;;;;5075148;28;20028;-62
2021/08/10 05:25:08;;;;;;;5.43;2.25;;;17.00;99.90;;;;;;5075089;28;20020;-62
2021/08/10 05:27:34;;;;;;;3.83;2.25;;;17.00;99.90;;;;;;5093243;28;20024;-62
2021/08/10 05:30:02;;;;;;;6.43;1.85;;;17.10;99.90;;;;;;5075002;28;20476;-62
2021/08/10 05:32:35;;;;;;;6.05;3.03;;;17.10;99.90;;;;;;5093309;28;20027;-62
2021/08/10 05:35:04;;;;;;;6.30;2.00;;;17.10;99.90;;;;;;5092898;28;20043;-62
2021/08/10 05:37:32;;;;;;;2.63;2.22;;;17.10;99.90;;;;;;5093081;28;20154;-62
2021/08/10 05:40:01;;;;;;;4.80;2.22;;;17.10;99.90;;;;;;5093077;28;20031;-62
2021/08/10 05:42:34;;;;;;;4.07;2.00;;;17.20;99.90;;;;;;5092918;28;20020;-62
2021/08/10 05:45:00;;;;;;;5.50;2.05;;;17.20;99.90;;;;;;5093147;28;20022;-62
2021/08/10 05:47:26;;;;;;;4.20;2.92;;;17.20;99.90;;;;;;5092967;28;20017;-62
2021/08/10 05:49:55;;;;;;;4.85;2.20;;;17.20;99.90;;;;;;5092850;28;20024;-62
2021/08/10 05:52:23;;;;;;;5.80;2.13;;;17.20;99.90;;;;;;5092709;28;20066;-62
2021/08/10 05:54:49;;;;;;;4.70;2.50;;;17.20;99.90;;;;;;5093415;28;20016;-63
2021/08/10 05:57:14;;;;;;;3.15;1.92;;;17.20;99.90;;;;;;5093363;28;20024;-62
2021/08/10 05:59:40;;;;;;;8.52;2.38;;;17.30;99.90;;;;;;5093342;28;20082;-62
2021/08/10 06:02:06;;;;;;;3.70;2.00;;;17.30;99.90;;;;;;5092789;28;20027;-62
2021/08/10 06:04:32;;;;;;;7.07;2.72;;;17.40;99.90;;;;;;5092924;28;20465;-63
2021/08/10 06:06:58;;;;;;;5.50;2.78;;;17.40;99.90;;;;;;5093017;28;20035;-62
2021/08/10 06:09:24;;;;;;;4.40;2.53;;;17.50;99.90;;;;;;5096710;28;20524;-62
2021/08/10 06:11:50;;;;;;;3.95;2.25;;;17.60;99.90;;;;;;5096669;28;20071;-62
2021/08/10 06:14:15;;;;;;;11.10;3.05;;;17.70;99.90;;;;;;5096589;28;20135;-63
2021/08/10 06:16:41;;;;;;;5.53;2.40;;;17.90;99.90;;;;;;5096730;28;20020;-62
2021/08/10 06:19:07;;;;;;;4.00;2.28;;;18.00;99.90;;;;;;5096730;28;20559;-62
2021/08/10 06:21:35;;;;;;;5.82;2.13;;;18.10;99.90;;;;;;5096801;28;20068;-62
2021/08/10 06:24:01;;;;;;;4.03;2.40;;;18.20;99.90;;;;;;5077902;28;20032;-64
2021/08/10 06:26:27;;;;;;;5.75;2.10;;;18.10;99.90;;;;;;5096285;28;20022;-62
2021/08/10 06:28:53;;;;;;;3.85;2.15;;;18.20;99.90;;;;;;5096441;28;20073;-63
2021/08/10 06:31:19;;;;;;;6.18;2.88;;;18.20;99.90;;;;;;5096443;28;20027;-63
2021/08/10 06:33:45;;;;;;;7.80;2.67;;;18.20;99.90;;;;;;5096489;28;20024;-62
2021/08/10 06:36:10;;;;;;;4.95;2.42;;;18.10;99.90;;;;;;5096125;28;20040;-62
2021/08/10 06:38:36;;;;;;;7.28;2.35;;;18.20;99.90;;;;;;5096201;28;20107;-62
2021/08/10 06:41:02;;;;;;;5.55;2.28;;;18.20;99.90;;;;;;5095947;28;20031;-61
2021/08/10 06:43:28;;;;;;;5.97;2.65;;;18.40;99.90;;;;;;5095988;28;20031;-62
2021/08/10 06:45:54;;;;;;;;;;;18.40;99.90;;;;;;5097297;28;20024;-62
2021/08/10 06:48:19;;;;;;;5.32;3.25;;;18.50;99.90;;;;;;5096428;28;19949;-63
2021/08/10 06:50:45;;;;;;;3.60;2.38;;;18.50;99.90;;;;;;5096232;28;20404;-62
2021/08/10 06:53:13;;;;;;;4.03;2.47;;;18.60;99.90;;;;;;5096003;28;20044;-63
2021/08/10 06:55:39;;;;;;;5.47;2.30;;;18.70;99.90;;;;;;5095828;28;20030;-63
2021/08/10 06:58:04;;;;;;;3.35;2.03;;;18.90;99.90;;;;;;5095865;28;20024;-63
2021/08/10 07:00:30;;;;;;;8.50;2.65;;;19.00;99.90;;;;;;5096004;28;20040;-63
2021/08/10 07:02:55;;;;;;;3.20;1.90;;;19.10;99.90;;;;;;5095850;28;20062;-63
2021/08/10 07:05:21;;;;;;;4.72;2.13;;;19.10;99.90;;;;;;5095915;28;20492;-62
2021/08/10 07:07:47;;;;;;;3.72;1.80;;;19.10;99.90;;;;;;5077750;28;20055;-63
2021/08/10 07:10:13;;;;;;;7.00;2.10;;;19.20;99.90;;;;;;5095936;28;20032;-63
2021/08/10 07:12:38;;;;;;;6.00;2.10;;;19.40;99.90;;;;;;5095848;28;20111;-62
2021/08/10 07:15:05;;;;;;;3.20;2.10;;;19.40;99.90;;;;;;5095632;28;20040;-62
2021/08/10 07:17:30;;;;;;;;;;;19.50;99.90;;;;;;5096052;28;20028;-63
2021/08/10 07:19:56;;;;;;;6.15;2.30;;;19.60;99.90;;;;;;5094828;28;19908;-63
2021/08/10 07:22:21;;;;;;;5.05;2.42;;;19.70;99.90;;;;;;5095219;28;20468;-62
2021/08/10 07:24:47;;;;;;;3.85;2.00;;;19.70;99.90;;;;;;5095435;28;20099;-63
2021/08/10 07:27:13;;;;;;;4.65;2.00;;;20.00;99.90;;;;;;5095592;28;20020;-64
2021/08/10 07:29:38;;;;;;;4.15;1.98;;;20.10;99.90;;;;;;5095253;28;20036;-62
2021/08/10 07:32:04;;;;;;;3.50;1.70;;;20.20;99.90;;;;;;5095198;28;20028;-63
2021/08/10 07:34:30;;;;;;;4.65;1.85;;;20.30;99.90;;;;;;5077129;28;20028;-62
2021/08/10 07:36:55;;;;;;;5.63;1.90;;;20.40;99.90;;;;;;5095418;28;20362;-63
2021/08/10 07:39:21;;;;;;;7.07;2.33;;;20.40;99.90;;;;;;5095243;28;20035;-63
2021/08/10 07:41:47;;;;;;;6.50;2.17;;;20.60;99.90;;;;;;5095016;28;20044;-63
2021/08/10 07:44:12;;;;;;;4.03;2.08;;;20.80;99.90;;;;;;5095134;28;20043;-63
2021/08/10 07:46:38;;;;;;;8.05;1.80;;;20.90;99.90;;;;;;5094855;28;20020;-64
2021/08/10 07:49:04;;;;;;;4.95;2.20;;;20.90;99.90;;;;;;5095396;28;20028;-63
2021/08/10 07:51:31;;;;;;;4.93;2.63;;;21.00;99.90;;;;;;5095665;28;20389;-65
2021/08/10 07:54:00;;;;;;;6.40;2.50;;;21.00;99.90;;;;;;5077026;28;20042;-65
2021/08/10 07:56:26;;;;;;;3.60;1.92;;;21.10;99.90;;;;;;5094370;28;20028;-63
2021/08/10 07:58:51;;;;;;;6.68;2.13;;;21.00;99.90;;;;;;5092716;28;20028;-63
2021/08/10 08:01:17;;;;;;;3.72;1.85;;;21.00;99.90;;;;;;5094215;28;20059;-63
2021/08/10 08:03:42;;;;;;;3.63;1.67;;;20.90;99.90;;;;;;5094325;28;20056;-63
2021/08/10 08:06:09;;;;;;;7.95;2.08;;;20.90;99.90;;;;;;5076432;28;20035;-62
2021/08/10 08:08:38;;;;;;;4.28;1.60;;;20.90;99.90;;;;;;5094714;28;20021;-63
2021/08/10 08:11:03;;;;;;;4.45;1.90;;;21.00;99.90;;;;;;5095820;28;20531;-62
2021/08/10 08:13:29;;;;;;;7.30;2.20;;;21.20;99.90;;;;;;5095512;28;20016;-62
2021/08/10 08:15:55;;;;;;;4.68;2.30;;;21.30;99.90;;;;;;5095201;28;20357;-62
2021/08/10 08:18:22;;;;;;;5.07;2.10;;;21.50;99.90;;;;;;5076153;28;20032;-62
2021/08/10 08:20:47;;;;;;;4.45;2.33;;;21.60;99.90;;;;;;5094154;28;20024;-61
2021/08/10 08:23:14;;;;;;;4.80;2.05;;;21.70;99.90;;;;;;5094414;28;20118;-62
2021/08/10 08:25:40;;;;;;;4.55;1.90;;;21.80;99.90;;;;;;5094492;28;20078;-63
2021/08/10 08:28:08;;;;;;;5.28;1.98;;;22.10;99.90;;;;;;5094015;28;20426;-63
2021/08/10 08:30:38;;;;;;;5.65;1.92;;;23.00;99.90;;;;;;5093126;28;20027;-63
2021/08/10 08:33:06;;;;;;;4.70;1.95;;;24.10;99.30;;;;;;5094458;28;20027;-62
2021/08/10 08:35:32;;;;;;;3.03;1.77;;;25.20;97.30;;;;;;5094071;28;20024;-62
2021/08/10 08:37:58;;;;;;;;;;;26.30;95.00;;;;;;5094217;28;20070;-63
2021/08/10 08:40:25;;;;;;;4.95;1.73;;;26.90;93.80;;;;;;5094034;28;19914;-63
2021/08/10 08:42:51;;;;;;;5.90;1.70;;;27.30;92.50;;;;;;5094202;28;20118;-63
2021/08/10 08:45:17;;;;;;;2.97;1.80;;;27.80;91.60;;;;;;5094136;28;20038;-63
2021/08/10 08:47:51;;;;;;;4.78;1.92;;;28.30;90.80;;;;;;5094109;28;20020;-63
2021/08/10 08:50:22;;;;;;;2.80;1.50;;;28.60;90.00;;;;;;5094622;28;20027;-61
2021/08/10 08:52:52;;;;;;;11.85;2.60;;;28.30;89.10;;;;;;5093748;28;20028;-62
2021/08/10 08:55:19;;;;;;;4.25;1.65;;;27.80;89.60;;;;;;5093849;28;20020;-62
2021/08/10 08:57:45;;;;;;;6.15;4.68;;;27.30;90.00;;;;;;5093970;28;20024;-62
2021/08/10 09:00:13;;;;;;;3.08;1.77;;;27.30;89.50;;;;;;5093725;28;20051;-61
2021/08/10 09:02:39;;;;;;;4.10;1.52;;;27.40;88.80;;;;;;5093539;28;20474;-62
2021/08/10 09:05:08;;;;;;;4.32;1.90;;;28.20;87.80;;;;;;5093558;28;20047;-62
2021/08/10 09:07:34;;;;;;;4.22;1.55;;;29.20;85.60;;;;;;5093613;28;20020;-62
2021/08/10 09:10:18;;;;;;;4.72;1.52;;;30.00;82.90;;;;;;5093551;28;20133;-63
2021/08/10 09:12:46;;;;;;;4.93;1.65;;;30.80;79.30;;;;;;5093621;28;20020;-63
2021/08/10 09:15:31;;;;;;;4.22;1.50;;;31.60;77.30;;;;;;5093334;28;20020;-63
2021/08/10 09:18:08;;;;;;;2.75;1.63;;;32.80;73.80;;;;;;5093247;28;20028;-63
2021/08/10 09:20:34;;;;;;;4.43;1.60;;;34.10;69.60;;;;;;5093527;28;20551;-63
2021/08/10 09:22:59;;;;;;;4.38;1.50;;;34.30;67.60;;;;;;5093034;28;20063;-63
2021/08/10 09:25:25;;;;;;;9.77;1.70;;;35.00;65.90;;;;;;5093334;28;20051;-63
2021/08/10 09:28:02;;;;;;;3.13;1.70;;;35.10;64.60;;;;;;5093276;28;20046;-63
2021/08/10 09:30:28;;;;;;;3.45;1.33;;;34.90;63.80;;;;;;5093449;28;20468;-63
2021/08/10 09:33:00;;;;;;;6.78;1.90;;;35.30;62.60;;;;;;5093145;28;20035;-63
2021/08/10 09:35:34;;;;;;;3.00;1.60;;;35.30;62.00;;;;;;5093069;28;20020;-63
2021/08/10 09:38:17;;;;;;;4.13;1.73;;;36.00;61.10;;;;;;5093290;28;20095;-63
2021/08/10 09:40:48;;;;;;;3.92;1.80;;;36.00;60.50;;;;;;5092873;28;20385;-63
2021/08/10 09:43:32;;;;;;;5.03;1.90;;;35.80;59.80;;;;;;5092673;28;20409;-63
2021/08/10 09:46:11;;;;;;;2.40;1.58;;;36.20;59.40;;;;;;5092911;28;20449;-63
2021/08/10 09:48:39;;;;;;;5.20;1.52;;;36.60;58.80;;;;;;5093088;28;20421;-63
2021/08/10 09:51:19;;;;;;;3.47;1.50;;;36.70;58.60;;;;;;5092544;28;20126;-63
2021/08/10 09:54:00;;;;;;;3.58;1.67;;;36.40;57.80;;;;;;5092794;28;20039;-63
2021/08/10 09:57:06;;;;;;;5.60;1.90;;;35.70;58.60;;;;;;5093375;28;20028;-63
2021/08/10 09:59:42;;;;;;;6.88;1.60;;;34.70;59.30;;;;;;5092449;28;20048;-63
2021/08/10 10:02:21;;;;;;;2.72;1.60;;;34.00;60.50;;;;;;5074825;28;20024;-63
2021/08/10 10:04:50;;;;;;;6.50;1.55;;;33.50;61.00;;;;;;5093341;28;20112;-63
2021/08/10 10:07:16;;;;;;;2.50;1.50;;;33.30;62.00;;;;;;5092982;28;20055;-63
2021/08/10 10:09:42;;;;;;;3.45;1.70;;;32.60;62.50;;;;;;5093229;28;20419;-63
2021/08/10 10:12:09;;;;;;;4.05;1.90;;;32.40;63.40;;;;;;5092981;28;20106;-62
2021/08/10 10:14:36;;;;;;;5.10;1.30;;;32.20;63.90;;;;;;5093059;28;20362;-63
2021/08/10 10:17:04;;;;;;;2.35;1.38;;;31.90;64.70;;;;;;5092593;28;20099;-63
2021/08/10 10:19:30;;;;;;;4.97;1.90;;;31.80;64.70;;;;;;5092678;28;20035;-62
2021/08/10 10:21:58;;;;;;;2.42;1.40;;;31.70;65.40;;;;;;5092569;28;20028;-62
2021/08/10 10:24:26;;;;;;;4.57;1.73;;;31.40;65.70;;;;;;5092457;28;20373;-62
2021/08/10 10:27:00;;;;;;;3.78;1.52;;;32.30;64.40;;;;;;5092628;28;20028;-62
2021/08/10 10:29:27;;;;;;;3.65;1.83;;;32.80;63.00;;;;;;5092348;28;20020;-63
2021/08/10 10:31:53;;;;;;;4.25;1.50;;;32.70;63.20;;;;;;5092939;28;20044;-63
2021/08/10 10:34:19;;;;;;;4.30;1.67;;;32.80;62.90;;;;;;5092332;28;20023;-63
2021/08/10 10:36:47;;;;;;;7.68;1.60;;;32.50;63.00;;;;;;5092300;28;20499;-63
2021/08/10 10:39:22;;;;;;;25.70;7.97;;;32.00;64.00;;;;;;5093256;28;20016;-64
2021/08/10 10:41:48;;;;;;;85.70;52.77;;;32.90;63.50;;;;;;5092589;28;20059;-63
2021/08/10 10:44:14;;;;;;;22.75;11.52;;;33.40;64.40;;;;;;5092589;28;20028;-63
2021/08/10 10:46:40;;;;;;;2.50;1.13;;;33.10;63.50;;;;;;5092491;28;20027;-63
2021/08/10 10:49:08;;;;;;;3.00;1.60;;;32.10;62.80;;;;;;5092484;28;20058;-63
2021/08/10 10:51:38;;;;;;;2.35;1.55;;;31.50;64.20;;;;;;5074490;28;20027;-62
2021/08/10 10:54:27;;;;;;;5.10;1.60;;;31.60;63.80;;;;;;5075971;28;20035;-62
2021/08/10 10:57:00;;;;;;;3.28;1.50;;;31.60;64.40;;;;;;5096724;28;20020;-63
2021/08/10 10:59:36;;;;;;;4.43;1.50;;;31.70;65.00;;;;;;5096638;28;20062;-64
2021/08/10 11:02:19;;;;;;;5.43;1.80;;;31.80;64.40;;;;;;5096809;28;20065;-63
2021/08/10 11:05:12;;;;;;;3.10;1.90;;;31.40;63.90;;;;;;5096929;28;20020;-63
2021/08/10 11:07:55;;;;;;;4.10;1.58;;;30.60;65.00;;;;;;5078247;28;20538;-64
2021/08/10 11:10:40;;;;;;;4.22;1.70;;;30.20;65.80;;;;;;5096798;28;20107;-64
2021/08/10 11:13:21;;;;;;;5.10;2.53;;;29.50;66.60;;;;;;5096631;28;20031;-64
2021/08/10 11:15:47;;;;;;;3.97;1.77;;;28.90;68.10;;;;;;5096619;28;20020;-65
2021/08/10 11:18:12;;;;;;;4.07;1.70;;;28.60;68.80;;;;;;5078360;28;20035;-64
2021/08/10 11:20:40;;;;;;;3.42;1.50;;;28.60;69.50;;;;;;5096781;28;20058;-64
2021/08/10 11:23:24;;;;;;;10.75;4.30;;;28.40;69.60;;;;;;5096621;28;20027;-64
2021/08/10 11:25:52;;;;;;;3.83;2.15;;;28.20;70.70;;;;;;5096197;28;20067;-65
2021/08/10 11:28:31;;;;;;;3.80;1.77;;;28.10;70.80;;;;;;5096027;28;20020;-65
2021/08/10 11:31:06;;;;;;;5.22;2.22;;;27.80;70.30;;;;;;5096214;28;20028;-63
2021/08/10 11:33:49;;;;;;;4.65;1.75;;;27.60;71.20;;;;;;5095216;28;20073;-64
2021/08/10 11:36:44;;;;;;;4.95;2.30;;;27.50;72.10;;;;;;5095740;28;20024;-63
2021/08/10 11:39:25;;;;;;;4.93;1.83;;;27.30;71.30;;;;;;5092656;28;20465;-64
2021/08/10 11:42:14;;;;;;;5.70;2.00;;;27.10;71.40;;;;;;5095210;28;20380;-64
2021/08/10 11:45:12;;;;;;;3.92;1.90;;;26.80;71.70;;;;;;5094817;28;20126;-64
2021/08/10 11:47:58;;;;;;;5.38;1.92;;;26.70;72.80;;;;;;5095466;28;20057;-64
2021/08/10 11:51:19;;;;;;;5.95;1.92;;;26.70;72.90;;;;;;5093171;28;20081;-64
2021/08/10 11:53:51;;;;;;;4.82;1.70;;;26.60;73.10;;;;;;5094378;28;20078;-64
2021/08/10 11:56:47;;;;;;;5.60;1.73;;;26.50;72.90;;;;;;5094815;28;20032;-64
2021/08/10 11:59:42;;;;;;;6.63;2.67;;;26.40;71.10;;;;;;5070500;28;20040;-64
2021/08/10 12:02:18;;;;;;;6.70;1.80;;;26.30;71.70;;;;;;5095141;28;20024;-64
2021/08/10 12:04:47;;;;;;;4.35;2.22;;;26.30;70.70;;;;;;5094863;28;20012;-64
2021/08/10 12:07:18;;;;;;;4.30;2.00;;;26.40;70.70;;;;;;5094636;28;20035;-63
2021/08/10 12:09:47;;;;;;;3.28;1.90;;;26.50;70.40;;;;;;5095242;28;20020;-64
2021/08/10 12:12:14;;;;;;;6.43;1.90;;;26.50;70.40;;;;;;5094553;28;20024;-64
2021/08/10 12:14:41;;;;;;;3.95;1.75;;;26.40;70.30;;;;;;5095119;28;20047;-64
2021/08/10 12:17:11;;;;;;;4.43;1.63;;;26.30;70.20;;;;;;5094753;28;20027;-64
2021/08/10 12:19:40;;;;;;;4.63;2.00;;;26.30;71.00;;;;;;5094748;28;20020;-64
2021/08/10 12:22:15;;;;;;;5.32;2.33;;;26.30;71.80;;;;;;5095094;28;20020;-63
2021/08/10 12:24:41;;;;;;;4.28;2.22;;;26.30;72.50;;;;;;5094801;28;20046;-63
2021/08/10 12:27:11;;;;;;;3.53;1.88;;;26.30;73.30;;;;;;5094329;28;20024;-62
2021/08/10 12:29:39;;;;;;;4.47;1.90;;;26.30;73.80;;;;;;5094849;28;20043;-63
2021/08/10 12:32:07;;;;;;;3.28;1.90;;;26.30;73.80;;;;;;5094611;28;20035;-63
2021/08/10 12:34:34;;;;;;;5.28;2.17;;;26.40;73.90;;;;;;5094044;28;20073;-63
2021/08/10 12:37:00;;;;;;;5.60;2.15;;;26.40;73.80;;;;;;5094214;28;20047;-64
2021/08/10 12:39:26;;;;;;;5.18;1.83;;;26.40;73.90;;;;;;5094134;28;20058;-63
2021/08/10 12:41:53;;;;;;;4.43;2.08;;;26.50;74.20;;;;;;5094117;28;20071;-63
2021/08/10 12:44:26;;;;;;;4.72;2.28;;;26.50;73.60;;;;;;5094126;28;20023;-64
2021/08/10 12:47:00;;;;;;;3.92;1.83;;;26.60;73.50;;;;;;5094303;28;20027;-64
2021/08/10 12:49:40;;;;;;;3.63;1.88;;;26.60;73.70;;;;;;5075975;28;20365;-65
2021/08/10 12:52:12;;;;;;;4.70;1.75;;;26.50;73.80;;;;;;5094155;28;20124;-65
2021/08/10 12:54:47;;;;;;;5.40;1.77;;;26.40;74.20;;;;;;5075416;28;20322;-65
2021/08/10 12:57:20;;;;;;;4.40;1.90;;;26.30;73.00;;;;;;5094255;28;20020;-65
2021/08/10 12:59:50;;;;;;;2.70;1.83;;;26.10;73.30;;;;;;5093650;28;20078;-63